Flight Track Log - Related Links

Times and Time Zones

All times are in EDT time to prevent confusion due to time zone crossing. See the VH-EQD flight status page for this flight to view local times or setup timezone preferences in your user account.

Time Position Orientation Groundspeed Altitude Reporting Facility
EDT Latitude Longitude Course Direction KTS MPH feet Rate Location/Type
Fri 11:14:38 PM -27.5610 152.9780 318° Northwest 104 120 700  Level FlightAware ADS-B
Fri 11:14:48 PM -27.5570 152.9770 348° North 121 139 700 240 Level FlightAware ADS-B
Fri 11:15:03 PM -27.5470 152.9760 355° North 127 146 800  Climbing FlightAware ADS-B
Fri 11:15:24 PM -27.5340 152.9750 356° North 142 163 700 -150 Descending FlightAware ADS-B
Fri 11:15:43 PM -27.5200 152.9740 356° North 147 169 700  Level FlightAware ADS-B
Fri 11:16:03 PM -27.5070 152.9760 North 143 165 700 120 Level FlightAware ADS-B
Fri 11:16:33 PM -27.4870 152.9760 360° North 144 166 800 109 Climbing FlightAware ADS-B
Fri 11:16:58 PM -27.4710 152.9770 North 139 160 800 133 Level FlightAware ADS-B
Fri 11:17:18 PM -27.4580 152.9770 360° North 134 154 900 240 Climbing FlightAware ADS-B
Fri 11:17:48 PM -27.4400 152.9770 360° North 134 154 1,000 343 Climbing FlightAware ADS-B
Fri 11:17:53 PM -27.4360 152.9780 13° North 132 152 1,100 600 Climbing FlightAware ADS-B
Fri 11:18:08 PM -27.4280 152.9800 13° North 132 152 1,200 343 Climbing FlightAware ADS-B
Fri 11:18:28 PM -27.4150 152.9800 360° North 130 150 1,300 450 Climbing FlightAware ADS-B
Fri 11:18:48 PM -27.4030 152.9830 13° North 127 146 1,500 450 Climbing FlightAware ADS-B
Fri 11:19:08 PM -27.3920 152.9850 North 125 144 1,600 400 Climbing FlightAware ADS-B
Fri 11:19:33 PM -27.3770 152.9870 North 125 144 1,800 533 Climbing FlightAware ADS-B
Fri 11:19:53 PM -27.3650 152.9880 North 125 144 2,000 600 Climbing FlightAware ADS-B
Fri 11:20:13 PM -27.3540 152.9900 North 125 144 2,200 514 Climbing FlightAware ADS-B
Fri 11:20:28 PM -27.3450 152.9910 North 125 144 2,300 514 Climbing FlightAware ADS-B
Fri 11:20:48 PM -27.3340 152.9930 North 127 146 2,500 600 Climbing FlightAware ADS-B
Fri 11:21:08 PM -27.3220 152.9940 North 132 152 2,700 514 Climbing FlightAware ADS-B
Fri 11:21:23 PM -27.3130 152.9960 11° North 131 151 2,800 600 Climbing FlightAware ADS-B
Fri 11:21:48 PM -27.2970 152.9980 North 131 151 3,100 686 Climbing FlightAware ADS-B
Fri 11:21:58 PM -27.2910 152.9980 360° North 134 154 3,200 400 Climbing FlightAware ADS-B
Fri 11:22:18 PM -27.2780 153.0000 North 137 158 3,300 450 Climbing FlightAware ADS-B
Fri 11:22:38 PM -27.2660 153.0020 North 139 160 3,500 514 Climbing FlightAware ADS-B
Fri 11:22:53 PM -27.2570 153.0030 North 140 161 3,600 514 Climbing FlightAware ADS-B
Fri 11:23:13 PM -27.2430 153.0040 North 140 161 3,800 600 Climbing FlightAware ADS-B
Fri 11:23:33 PM -27.2300 153.0060 North 142 163 4,000 600 Climbing FlightAware ADS-B
Fri 11:23:53 PM -27.2170 153.0080 North 143 165 4,200 600 Climbing FlightAware ADS-B
Fri 11:24:13 PM -27.2040 153.0100 North 143 165 4,400 500 Climbing FlightAware ADS-B
Fri 11:24:29 PM -27.1940 153.0110 North 143 165 4,500 514 Climbing FlightAware ADS-B
Fri 11:24:48 PM -27.1810 153.0130 North 142 163 4,700 615 Climbing FlightAware ADS-B
Fri 11:25:08 PM -27.1680 153.0150 North 142 163 4,900 514 Climbing FlightAware ADS-B
Fri 11:25:23 PM -27.1580 153.0160 North 142 163 5,000 514 Climbing FlightAware ADS-B
Fri 11:25:43 PM -27.1450 153.0180 North 142 163 5,200 600 Climbing FlightAware ADS-B
Fri 11:26:03 PM -27.1310 153.0200 North 142 163 5,400 450 Climbing FlightAware ADS-B
Fri 11:26:23 PM -27.1180 153.0210 North 145 167 5,500 343 Climbing FlightAware ADS-B
Fri 11:26:38 PM -27.1080 153.0230 10° North 146 168 5,600 343 Climbing FlightAware ADS-B
Fri 11:26:58 PM -27.0950 153.0240 North 146 168 5,700  Climbing FlightAware ADS-B
Fri 11:27:18 PM -27.0810 153.0260 North 154 177 5,600  Descending FlightAware ADS-B
Fri 11:27:48 PM -27.0590 153.0290 North 156 180 5,700  Climbing FlightAware ADS-B
Fri 11:28:03 PM -27.0480 153.0310 North 155 178 5,600  Descending FlightAware ADS-B
Fri 11:28:23 PM -27.0340 153.0320 North 153 176 5,700  Climbing FlightAware ADS-B
Fri 11:28:43 PM -27.0200 153.0330 North 153 176 5,600  Descending FlightAware ADS-B
Fri 11:28:53 PM -27.0130 153.0320 353° North 153 176 5,700  Climbing FlightAware ADS-B
Fri 11:29:13 PM -26.9990 153.0300 353° North 152 175 5,600  Descending FlightAware ADS-B
Fri 11:29:33 PM -26.9850 153.0280 353° North 151 174 5,700 133 Climbing FlightAware ADS-B
Fri 11:29:58 PM -26.9680 153.0250 351° North 152 175 5,700 -133 Level FlightAware ADS-B
Fri 11:30:18 PM -26.9540 153.0220 349° North 152 175 5,600 -150 Descending FlightAware ADS-B
Fri 11:30:38 PM -26.9390 153.0200 353° North 152 175 5,600 150 Level FlightAware ADS-B
Fri 11:30:58 PM -26.9250 153.0170 349° North 152 175 5,700  Climbing FlightAware ADS-B
Fri 11:31:13 PM -26.9160 153.0160 354° North 152 175 5,600  Descending FlightAware ADS-B
Fri 11:31:33 PM -26.9010 153.0130 350° North 153 176 5,700  Climbing FlightAware ADS-B
Fri 11:31:53 PM -26.8870 153.0110 353° North 153 176 5,600  Descending FlightAware ADS-B
Fri 11:32:08 PM -26.8760 153.0090 351° North 153 176 5,700 171 Climbing FlightAware ADS-B
Fri 11:32:28 PM -26.8620 153.0070 353° North 153 176 5,700  Level FlightAware ADS-B
Fri 11:32:48 PM -26.8480 153.0040 349° North 155 178 5,700  Level FlightAware ADS-B
Fri 11:33:03 PM -26.8390 153.0030 354° North 154 177 5,700  Level FlightAware ADS-B
Fri 11:33:33 PM -26.8160 153.0050 North 153 176 5,700 -120 Level FlightAware ADS-B
Fri 11:33:53 PM -26.8030 153.0100 19° North 152 175 5,600  Descending FlightAware ADS-B
Fri 11:34:13 PM -26.7890 153.0150 18° North 151 174 5,700 133 Climbing FlightAware ADS-B
Fri 11:34:38 PM -26.7740 153.0200 17° North 152 175 5,700  Level FlightAware ADS-B
Fri 11:34:58 PM -26.7590 153.0260 20° North 152 175 5,700 -150 Level FlightAware ADS-B
Fri 11:35:18 PM -26.7460 153.0310 19° North 153 176 5,600  Descending FlightAware ADS-B
Fri 11:35:38 PM -26.7320 153.0360 18° North 153 176 5,700 150 Climbing FlightAware ADS-B
Fri 11:35:58 PM -26.7190 153.0420 22° Northeast 152 175 5,700  Level FlightAware ADS-B
Fri 11:36:18 PM -26.7050 153.0470 18° North 152 175 5,700  Level FlightAware ADS-B
Fri 11:36:33 PM -26.6950 153.0500 15° North 152 175 5,700  Level FlightAware ADS-B
Fri 11:36:58 PM -26.6790 153.0570 21° North 153 176 5,700  Level FlightAware ADS-B
Fri 11:37:18 PM -26.6660 153.0620 19° North 152 175 5,700  Level FlightAware ADS-B
Fri 11:37:38 PM -26.6520 153.0670 18° North 152 175 5,700  Level FlightAware ADS-B
Fri 11:37:53 PM -26.6420 153.0710 20° North 153 176 5,700  Level FlightAware ADS-B
Fri 11:38:08 PM -26.6330 153.0730 11° North 154 177 5,700  Level FlightAware ADS-B
Fri 11:38:35 PM -26.6170 153.0740 North 154 177 5,700  Level FlightAware ADS-B
Fri 11:38:38 PM -26.6140 153.0620 286° West 155 178 5,700  Level FlightAware ADS-B
Fri 11:39:08 PM -26.6150 153.0400 267° West 147 169 5,700  Level FlightAware ADS-B
Fri 11:39:18 PM -26.6180 153.0340 241° Southwest 146 168 5,700  Level FlightAware ADS-B
Fri 11:39:38 PM -26.6270 153.0200 234° Southwest 148 170 5,700  Level FlightAware ADS-B
Fri 11:39:58 PM -26.6340 153.0060 241° Southwest 149 171 5,700  Level FlightAware ADS-B
Fri 11:40:18 PM -26.6410 152.9930 239° Southwest 148 170 5,700  Level FlightAware ADS-B
Fri 11:40:38 PM -26.6460 152.9790 248° West 148 170 5,700  Level FlightAware ADS-B
Fri 11:40:58 PM -26.6520 152.9660 243° Southwest 148 170 5,700  Level FlightAware ADS-B
Fri 11:41:13 PM -26.6570 152.9550 243° Southwest 148 170 5,700  Level FlightAware ADS-B
Fri 11:41:38 PM -26.6650 152.9380 242° Southwest 147 169 5,700  Level FlightAware ADS-B
Fri 11:41:48 PM -26.6680 152.9310 244° Southwest 146 168 5,700  Level FlightAware ADS-B
Fri 11:42:08 PM -26.6740 152.9180 243° Southwest 147 169 5,700  Level FlightAware ADS-B
Fri 11:42:28 PM -26.6800 152.9050 243° Southwest 147 169 5,700  Level FlightAware ADS-B
Fri 11:42:43 PM -26.6850 152.8950 241° Southwest 148 170 5,700  Level FlightAware ADS-B
Fri 11:43:03 PM -26.6920 152.8800 242° Southwest 148 170 5,700  Level FlightAware ADS-B
Fri 11:43:18 PM -26.6960 152.8710 244° Southwest 147 169 5,700  Level FlightAware ADS-B
Fri 11:43:38 PM -26.7020 152.8570 244° Southwest 148 170 5,700  Level FlightAware ADS-B
Fri 11:44:08 PM -26.7120 152.8370 241° Southwest 149 171 5,700  Level FlightAware ADS-B
Fri 11:44:28 PM -26.7180 152.8230 244° Southwest 149 171 5,700  Level FlightAware ADS-B
Fri 11:44:53 PM -26.7260 152.8060 242° Southwest 147 169 5,700  Level FlightAware ADS-B
Fri 11:45:13 PM -26.7330 152.7920 241° Southwest 148 170 5,700  Level FlightAware ADS-B
Fri 11:45:23 PM -26.7360 152.7850 244° Southwest 148 170 5,700  Level FlightAware ADS-B
Fri 11:45:48 PM -26.7430 152.7680 245° Southwest 148 170 5,700  Level FlightAware ADS-B
Fri 11:46:08 PM -26.7500 152.7560 237° Southwest 143 165 5,700 -150 Level FlightAware ADS-B
Fri 11:46:28 PM -26.7600 152.7460 222° Southwest 143 165 5,600  Descending FlightAware ADS-B
Fri 11:46:43 PM -26.7690 152.7380 218° Southwest 143 165 5,700 146 Climbing FlightAware ADS-B
Fri 11:47:09 PM -26.7790 152.7270 224° Southwest 143 165 5,700  Level FlightAware ADS-B
Fri 11:47:28 PM -26.7900 152.7160 222° Southwest 144 166 5,700  Level FlightAware ADS-B
Fri 11:47:48 PM -26.8000 152.7050 224° Southwest 145 167 5,700  Level FlightAware ADS-B
Fri 11:48:08 PM -26.8090 152.6950 225° Southwest 145 167 5,700  Level FlightAware ADS-B
Fri 11:48:23 PM -26.8170 152.6860 225° Southwest 147 169 5,700  Level FlightAware ADS-B
Fri 11:48:43 PM -26.8270 152.6750 224° Southwest 147 169 5,700  Level FlightAware ADS-B
Fri 11:49:03 PM -26.8360 152.6650 225° Southwest 145 167 5,700  Level FlightAware ADS-B
Fri 11:49:18 PM -26.8430 152.6580 222° Southwest 145 167 5,700  Level FlightAware ADS-B
Fri 11:49:39 PM -26.8530 152.6460 227° Southwest 146 168 5,700  Level FlightAware ADS-B
Fri 11:49:58 PM -26.8630 152.6360 222° Southwest 145 167 5,700  Level FlightAware ADS-B
Fri 11:50:18 PM -26.8720 152.6260 225° Southwest 146 168 5,700  Level FlightAware ADS-B
Fri 11:50:38 PM -26.8820 152.6150 224° Southwest 146 168 5,700  Level FlightAware ADS-B
Fri 11:51:03 PM -26.8940 152.6020 224° Southwest 147 169 5,700  Level FlightAware ADS-B
Fri 11:51:18 PM -26.9020 152.5940 222° Southwest 145 167 5,700  Level FlightAware ADS-B
Fri 11:51:38 PM -26.9120 152.5830 224° Southwest 145 167 5,700  Level FlightAware ADS-B
Fri 11:51:53 PM -26.9200 152.5780 209° Southwest 142 163 5,700  Level FlightAware ADS-B
Fri 11:51:58 PM -26.9230 152.5780 180° South 142 163 5,700  Level FlightAware ADS-B
Fri 11:52:18 PM -26.9350 152.5830 160° South 141 162 5,700  Level FlightAware ADS-B
Fri 11:52:39 PM -26.9460 152.5920 144° Southeast 142 163 5,700  Level FlightAware ADS-B
Fri 11:52:58 PM -26.9560 152.6000 145° Southeast 142 163 5,700  Level FlightAware ADS-B
Fri 11:53:18 PM -26.9680 152.6080 149° Southeast 142 163 5,700  Level FlightAware ADS-B
Fri 11:53:38 PM -26.9790 152.6150 150° Southeast 142 163 5,700  Level FlightAware ADS-B
Fri 11:53:58 PM -26.9910 152.6230 149° Southeast 143 165 5,700  Level FlightAware ADS-B
Fri 11:54:13 PM -27.0000 152.6280 154° Southeast 141 162 5,700  Level FlightAware ADS-B
Fri 11:54:33 PM -27.0100 152.6350 148° Southeast 141 162 5,700  Level FlightAware ADS-B
Fri 11:54:53 PM -27.0220 152.6430 149° Southeast 141 162 5,700  Level FlightAware ADS-B
Fri 11:55:13 PM -27.0340 152.6500 153° Southeast 141 162 5,700  Level FlightAware ADS-B
Fri 11:55:33 PM -27.0450 152.6580 147° Southeast 142 163 5,700  Level FlightAware ADS-B
Fri 11:55:58 PM -27.0590 152.6680 148° Southeast 143 165 5,700  Level FlightAware ADS-B
Fri 11:56:08 PM -27.0640 152.6710 152° Southeast 142 163 5,700  Level FlightAware ADS-B
Fri 11:56:28 PM -27.0750 152.6780 150° Southeast 140 161 5,700  Level FlightAware ADS-B
Fri 11:56:53 PM -27.0880 152.6870 148° Southeast 141 162 5,700  Level FlightAware ADS-B
Fri 11:57:13 PM -27.1010 152.6960 148° Southeast 139 160 5,700  Level FlightAware ADS-B
Fri 11:57:33 PM -27.1120 152.7030 150° Southeast 141 162 5,700  Level FlightAware ADS-B
Fri 11:57:53 PM -27.1240 152.7110 149° Southeast 140 161 5,700  Level FlightAware ADS-B
Fri 11:58:13 PM -27.1350 152.7180 150° Southeast 142 163 5,700  Level FlightAware ADS-B
Fri 11:58:38 PM -27.1490 152.7270 150° Southeast 142 163 5,700  Level FlightAware ADS-B
Fri 11:58:58 PM -27.1610 152.7350 149° Southeast 142 163 5,700 -300 Level FlightAware ADS-B
Fri 11:59:18 PM -27.1730 152.7430 149° Southeast 152 175 5,500 -600 Descending FlightAware ADS-B
Fri 11:59:38 PM -27.1840 152.7500 150° Southeast 155 178 5,300 -514 Descending FlightAware ADS-B
Fri 11:59:53 PM -27.1940 152.7570 148° Southeast 157 181 5,200 -514 Descending FlightAware ADS-B
Sat 12:00:13 AM -27.2070 152.7660 148° Southeast 158 182 5,000 -686 Descending FlightAware ADS-B
Sat 12:00:28 AM -27.2160 152.7720 149° Southeast 156 180 4,800 -231 Descending FlightAware ADS-B
Sat 12:01:05 AM -27.2391 152.7880 149° Southeast 154 177 4,800 -146 Level Aus ATC (RADAR)
Sat 12:01:09 AM -27.2390 152.7880 149° Southeast 155 178 4,700 -1,235 Descending FlightAware ADS-B
Sat 12:01:39 AM -27.2610 152.8020 149° Southeast 159 183 4,100 -581 Descending FlightAware ADS-B
Sat 12:01:40 AM -27.2613 152.8025 149° Southeast 156 180 4,400 -600 Climbing Aus ATC (RADAR)
Sat 12:01:59 AM -27.2740 152.8100 151° Southeast 162 186 3,900 -1,059 Descending FlightAware ADS-B
Sat 12:02:14 AM -27.2840 152.8160 152° Southeast 164 189 3,800 -686 Descending FlightAware ADS-B
Sat 12:02:34 AM -27.2950 152.8250 144° Southeast 166 191 3,500 -750 Descending FlightAware ADS-B
Sat 12:02:54 AM -27.3090 152.8350 148° Southeast 166 191 3,300 -667 Descending FlightAware ADS-B
Sat 12:03:19 AM -27.3260 152.8460 150° Southeast 158 182 3,000 -667 Descending FlightAware ADS-B
Sat 12:03:39 AM -27.3380 152.8530 153° Southeast 154 177 2,800 -750 Descending FlightAware ADS-B
Sat 12:03:59 AM -27.3520 152.8590 159° South 156 180 2,500 -750 Descending FlightAware ADS-B
Sat 12:04:19 AM -27.3650 152.8660 154° Southeast 155 178 2,300 -667 Descending FlightAware ADS-B
Sat 12:04:44 AM -27.3820 152.8740 157° South 154 177 2,000 -667 Descending FlightAware ADS-B
Sat 12:05:04 AM -27.3950 152.8800 158° South 158 182 1,800 -600 Descending FlightAware ADS-B
Sat 12:05:24 AM -27.4090 152.8860 159° South 159 183 1,600 -514 Descending FlightAware ADS-B
Sat 12:05:39 AM -27.4170 152.8910 151° Southeast 157 181 1,500 -343 Descending FlightAware ADS-B
Sat 12:05:59 AM -27.4320 152.8950 167° South 147 169 1,400 -300 Descending FlightAware ADS-B
Sat 12:06:19 AM -27.4440 152.9000 160° South 142 163 1,300 -150 Descending FlightAware ADS-B
Sat 12:06:39 AM -27.4580 152.9050 162° South 140 161 1,300  Level FlightAware ADS-B
Sat 12:07:04 AM -27.4720 152.9120 156° South 140 161 1,300 -133 Level FlightAware ADS-B
Sat 12:07:24 AM -27.4850 152.9160 165° South 135 155 1,200 -150 Descending FlightAware ADS-B
Sat 12:07:44 AM -27.4950 152.9220 152° Southeast 134 154 1,200  Level FlightAware ADS-B
Sat 12:07:54 AM -27.5020 152.9250 159° South 131 151 1,200 -171 Level FlightAware ADS-B
Sat 12:08:19 AM -27.5150 152.9320 154° Southeast 133 153 1,100 -133 Descending FlightAware ADS-B
Sat 12:08:39 AM -27.5270 152.9380 156° South 129 148 1,100  Level FlightAware ADS-B
Sat 12:08:59 AM -27.5370 152.9430 156° South 122 140 1,100 -300 Level FlightAware ADS-B
Sat 12:09:19 AM -27.5480 152.9480 158° South 120 138 900 -600 Descending FlightAware ADS-B
Sat 12:09:29 AM -27.5530 152.9510 152° Southeast 123 142 800 -800 Descending FlightAware ADS-B
Sat 12:09:34 AM -27.5550 152.9530 138° Southeast 125 144 700 -800 Descending FlightAware ADS-B
Sat 12:09:44 AM -27.5580 152.9580 124° Southeast 122 140 600 -600 Descending FlightAware ADS-B
Sat 12:10:04 AM -27.5620 152.9680 114° Southeast 111 128 400 -514 Descending FlightAware ADS-B
Sat 12:10:19 AM -27.5650 152.9770 111° Southeast 104 120 300 -143 Descending FlightAware ADS-B
Sat 12:10:46 AM -27.5680 152.9890 106° East 104 120 300  Level FlightAware ADS-B

Login

Don't have an account? Register now (free) for customized features, flight alerts, and more!